Humidity-temperature Sensor

Selected Measurement Type: Air Temperature

 
Air Temperature [°C]     6 entries per hour
Showing data from 8/20/2020 (00:00:00 Z) to 8/19/2020 (00:01:00 Z)
Previous Next [ Day | 3-Days | 7-Days ]
First Last
Prev [ Day | 3-Days | 7-Days ] Next
First Last

Start Time:     :
End Time:     :     
Time (in GMT) :00 :50 :40 :30 :20 :10
Previous Next [ Day | 3-Days | 7-Days ]
First Last
Prev [ Day | 3-Days | 7-Days ] Next
First Last


123 => good data
MM => data is determined as missing
-- => data not received/configured
Back to Top Back to Top
8/20/2020 00:00 to 23:10 28.29 27.80 27.63 27.60 27.54 27.57
8/19/2020 23:00 to 22:10 27.40 27.36 27.37 27.47 27.68 27.50
8/19/2020 22:00 to 21:10 27.44 27.34 27.01 26.69 26.54 26.17
8/19/2020 21:00 to 20:10 26.19 25.85 25.30 25.29 25.82 26.30
8/19/2020 20:00 to 19:10 26.33 26.38 25.84 25.64 25.27 25.47
8/19/2020 19:00 to 18:10 25.40 25.21 25.47 25.39 25.67 26.50
8/19/2020 18:00 to 17:10 26.90 26.54 26.71 26.50 26.83 26.96
8/19/2020 17:00 to 16:10 27.44 27.70 27.74 27.59 27.76 27.67
8/19/2020 16:00 to 15:10 27.57 27.16 26.69 26.85 26.71 27.01
8/19/2020 15:00 to 14:10 27.20 27.78 27.72 27.81 27.86 27.65
8/19/2020 14:00 to 13:10 27.39 26.80 26.74 27.10 27.67 27.89
8/19/2020 13:00 to 12:10 27.92 28.04 28.02 27.99 28.10 27.85
8/19/2020 12:00 to 11:10 27.91 27.98 27.92 27.82 27.81 27.79
8/19/2020 11:00 to 10:10 27.88 27.79 27.68 27.83 27.91 27.82
8/19/2020 10:00 to 9:10 27.92 28.03 27.96 28.05 27.85 27.58
8/19/2020 09:00 to 8:10 27.71 27.55 27.69 27.66 27.55 27.43
8/19/2020 08:00 to 7:10 27.15 26.68 26.63 26.61 26.82 26.67
8/19/2020 07:00 to 6:10 26.66 27.04 27.07 26.86 27.66 27.68
8/19/2020 06:00 to 5:10 27.45 27.78 27.99 27.96 27.95 28.16
8/19/2020 05:00 to 4:10 28.31 28.33 28.10 28.35 28.27 28.40
8/19/2020 04:00 to 3:10 28.34 28.37 28.31 28.18 28.35 28.44
8/19/2020 03:00 to 2:10 28.61 28.55 28.66 28.59 28.46 28.43
8/19/2020 02:00 to 1:10 28.47 28.35 28.30 28.21 27.36 27.14
8/19/2020 01:00 to 0:10 26.52 26.62 27.59 27.61 27.75 27.57